Terminal Aerodrome Forecast
Issued by NWS

Current Version | Previous Version | Text Only | Print | Product List | Glossary Off
Versions: 1 2 3 4 5 6 7 8 9 10 11 12 13 14

000
FTUS42 KILM 232330
TAFCRE
TAF
KCRE 232330Z 2400/2424 04003KT P6SM SKC
     FM241400 04010KT P6SM SCT040
     FM241900 10010KT P6SM SCT050=

USA.gov is the U.S. government's official web portal to all federal, state and local government web resources and services.